Time;durP1;ratioP1;P1;durP2;ratioP2;P2;SDS_P1;SDS_P2;PMS_P1;PMS_P2;Temp;Humidity;BMP_temperature;BMP_pressure;BME280_temperature;BME280_humidity;BME280_pressure;Samples;Min_cycle;Max_cycle;Signal;HPM_P1;HPM_P2
2021/01/24 00:00:47;;;;;;;23.27;14.20;;;;;;;;;;4946712;29;20284;-78
2021/01/24 00:03:13;;;;;;;21.50;13.87;;;;;;;;;;4933762;29;20818;-79
2021/01/24 00:05:41;;;;;;;21.63;14.47;;;;;;;;;;4929697;29;21043;-78
2021/01/24 00:08:07;;;;;;;25.20;15.60;;;;;;;;;;4944370;28;20713;-79
2021/01/24 00:10:33;;;;;;;22.10;14.63;;;;;;;;;;4945677;29;20279;-78
2021/01/24 00:12:59;;;;;;;21.57;14.20;;;;;;;;;;4929907;29;20295;-76
2021/01/24 00:15:26;;;;;;;27.07;16.07;;;;;;;;;;4946133;29;20303;-78
2021/01/24 00:17:52;;;;;;;27.33;16.13;;;;;;;;;;4931562;29;20682;-79
2021/01/24 00:20:18;;;;;;;26.50;16.43;;;;;;;;;;4945099;29;20673;-78
2021/01/24 00:22:44;;;;;;;25.10;15.53;;;;;;;;;;4930462;29;20280;-77
2021/01/24 00:25:11;;;;;;;23.20;15.03;;;;;;;;;;4945189;29;20275;-76
2021/01/24 00:27:37;;;;;;;26.43;15.07;;;;;;;;;;4927761;29;20319;-78
2021/01/24 00:30:06;;;;;;;25.63;15.03;;;;;;;;;;4946710;28;20361;-79
2021/01/24 00:32:33;;;;;;;25.90;15.03;;;;;;;;;;4948769;29;20303;-78
2021/01/24 00:34:59;;;;;;;28.20;15.53;;;;;;;;;;4934460;29;20334;-79
2021/01/24 00:37:25;;;;;;;23.00;12.93;;;;;;;;;;4947352;29;20298;-77
2021/01/24 00:39:51;;;;;;;26.73;14.77;;;;;;;;;;4949013;28;20327;-79
2021/01/24 00:42:17;;;;;;;20.73;12.63;;;;;;;;;;4949404;29;20279;-79
2021/01/24 00:44:43;;;;;;;24.47;14.40;;;;;;;;;;4949153;29;20264;-76
2021/01/24 00:47:09;;;;;;;20.20;12.13;;;;;;;;;;4971877;28;20264;-75
2021/01/24 00:49:35;;;;;;;23.80;13.67;;;;;;;;;;4960840;28;20290;-77
2021/01/24 00:52:01;;;;;;;17.40;10.70;;;;;;;;;;4956040;28;20274;-79
2021/01/24 00:54:28;;;;;;;21.93;11.03;;;;;;;;;;4943689;28;20284;-79
2021/01/24 00:56:54;;;;;;;17.10;10.90;;;;;;;;;;4950712;29;20275;-79
2021/01/24 00:59:20;;;;;;;18.47;10.63;;;;;;;;;;4928119;29;20272;-78
2021/01/24 01:01:47;;;;;;;17.07;10.13;;;;;;;;;;4950923;29;20283;-79
2021/01/24 01:04:14;;;;;;;18.73;11.00;;;;;;;;;;4951455;29;20626;-79
2021/01/24 01:06:40;;;;;;;17.60;10.10;;;;;;;;;;4949698;28;20773;-78
2021/01/24 01:09:06;;;;;;;16.63;9.97;;;;;;;;;;4940611;28;20283;-78
2021/01/24 01:11:32;;;;;;;17.13;9.80;;;;;;;;;;4951114;29;20816;-79
2021/01/24 01:13:58;;;;;;;15.33;8.77;;;;;;;;;;4950562;29;20271;-78
2021/01/24 01:16:24;;;;;;;14.57;8.53;;;;;;;;;;4949763;29;20283;-79
2021/01/24 01:18:50;;;;;;;16.07;8.50;;;;;;;;;;4949332;28;20310;-79
2021/01/24 01:21:16;;;;;;;13.37;8.00;;;;;;;;;;4948060;28;20399;-79
2021/01/24 01:23:42;;;;;;;13.83;7.37;;;;;;;;;;4936140;29;20291;-79
2021/01/24 01:26:09;;;;;;;13.53;7.77;;;;;;;;;;4934066;29;20271;-79
2021/01/24 01:28:36;;;;;;;13.07;7.50;;;;;;;;;;4934154;29;20287;-79
2021/01/24 01:31:02;;;;;;;12.10;7.37;;;;;;;;;;4950211;29;20280;-79
2021/01/24 01:33:28;;;;;;;11.83;7.03;;;;;;;;;;4935763;29;20355;-79
2021/01/24 01:35:54;;;;;;;11.57;7.33;;;;;;;;;;4949967;29;20275;-79
2021/01/24 01:38:20;;;;;;;10.03;5.97;;;;;;;;;;4934953;29;21013;-78
2021/01/24 01:40:47;;;;;;;11.63;7.07;;;;;;;;;;4936110;29;20267;-76
2021/01/24 01:43:13;;;;;;;10.50;5.77;;;;;;;;;;4951023;29;20311;-79
2021/01/24 01:45:39;;;;;;;12.23;7.27;;;;;;;;;;4951600;29;20283;-79
2021/01/24 01:48:05;;;;;;;11.07;6.37;;;;;;;;;;4948542;28;20291;-79
2021/01/24 01:50:31;;;;;;;10.20;6.37;;;;;;;;;;4950908;29;20291;-79
2021/01/24 01:53:00;;;;;;;10.37;6.20;;;;;;;;;;4954246;28;20275;-79
2021/01/24 01:55:26;;;;;;;9.20;5.73;;;;;;;;;;4950360;29;20701;-76
2021/01/24 01:57:52;;;;;;;11.93;6.00;;;;;;;;;;4954981;28;20294;-79
2021/01/24 02:00:18;;;;;;;10.80;6.33;;;;;;;;;;4951656;28;20411;-79
2021/01/24 02:02:44;;;;;;;11.90;6.20;;;;;;;;;;4935187;29;20272;-79
2021/01/24 02:05:20;;;;;;;10.23;6.30;;;;;;;;;;4935371;29;20283;-79
2021/01/24 02:08:00;;;;;;;8.83;4.87;;;;;;;;;;4950696;29;20375;-79
2021/01/24 02:10:35;;;;;;;8.60;5.27;;;;;;;;;;4945887;29;20280;-78
2021/01/24 02:13:01;;;;;;;10.80;6.33;;;;;;;;;;4932650;29;20260;-79
2021/01/24 02:15:30;;;;;;;8.43;5.60;;;;;;;;;;4952354;29;20290;-79
2021/01/24 02:18:06;;;;;;;11.10;6.47;;;;;;;;;;4952759;28;20292;-79
2021/01/24 02:20:45;;;;;;;10.10;4.87;;;;;;;;;;4946296;29;20267;-78
2021/01/24 02:23:12;;;;;;;9.73;5.97;;;;;;;;;;4945701;29;20275;-75
2021/01/24 02:25:47;;;;;;;11.33;6.10;;;;;;;;;;4949362;29;20358;-79
2021/01/24 02:28:26;;;;;;;8.93;5.30;;;;;;;;;;4933705;29;20288;-79
2021/01/24 02:30:53;;;;;;;8.60;5.20;;;;;;;;;;4949411;29;21137;-79
2021/01/24 02:33:19;;;;;;;8.60;4.90;;;;;;;;;;4948687;29;20272;-78
2021/01/24 02:35:48;;;;;;;8.87;5.23;;;;;;;;;;4949281;29;20704;-80
2021/01/24 02:38:15;;;;;;;7.63;4.67;;;;;;;;;;4957787;28;20292;-77
2021/01/24 02:40:41;;;;;;;8.20;4.73;;;;;;;;;;4935879;29;20314;-80
2021/01/24 02:43:08;;;;;;;7.90;4.33;;;;;;;;;;4949409;29;20264;-79
2021/01/24 02:45:40;;;;;;;8.57;3.70;;;;;;;;;;4949627;29;20765;-79
2021/01/24 02:48:07;;;;;;;6.43;3.80;;;;;;;;;;4961434;28;20347;-80
2021/01/24 02:50:34;;;;;;;7.17;3.47;;;;;;;;;;4949774;29;20290;-80
2021/01/24 02:53:01;;;;;;;6.23;3.20;;;;;;;;;;4949107;28;20271;-79
2021/01/24 02:55:27;;;;;;;5.60;3.23;;;;;;;;;;4951062;28;20995;-78
2021/01/24 02:57:54;;;;;;;6.93;3.37;;;;;;;;;;4948735;28;20326;-78
2021/01/24 03:00:20;;;;;;;7.67;3.90;;;;;;;;;;4948876;29;20275;-80
2021/01/24 03:02:47;;;;;;;6.20;3.23;;;;;;;;;;4937459;29;20251;-79
2021/01/24 03:05:13;;;;;;;6.77;3.27;;;;;;;;;;4932248;29;20286;-80
2021/01/24 03:07:40;;;;;;;6.33;3.00;;;;;;;;;;4950968;28;20283;-77
2021/01/24 03:10:07;;;;;;;5.70;3.27;;;;;;;;;;4949587;28;20283;-79
2021/01/24 03:12:35;;;;;;;6.30;3.43;;;;;;;;;;4951535;29;20271;-79
2021/01/24 03:15:02;;;;;;;3.20;1.90;;;;;;;;;;4935733;29;20773;-79
2021/01/24 03:17:30;;;;;;;3.97;1.97;;;;;;;;;;4933714;29;20283;-79
2021/01/24 03:19:57;;;;;;;3.37;1.57;;;;;;;;;;4950566;28;20276;-79
2021/01/24 03:22:24;;;;;;;1.63;0.80;;;;;;;;;;4949696;28;20275;-77
2021/01/24 03:24:50;;;;;;;2.10;1.10;;;;;;;;;;4950767;29;20418;-78
2021/01/24 03:27:17;;;;;;;3.23;1.10;;;;;;;;;;4950208;29;20861;-78
2021/01/24 03:29:43;;;;;;;1.70;0.70;;;;;;;;;;4939610;28;20769;-79
2021/01/24 03:32:09;;;;;;;2.10;0.97;;;;;;;;;;4935758;29;20299;-79
2021/01/24 03:34:35;;;;;;;1.67;0.60;;;;;;;;;;4935443;29;20275;-78
2021/01/24 03:37:01;;;;;;;1.23;0.70;;;;;;;;;;4949295;29;20275;-77
2021/01/24 03:39:27;;;;;;;0.87;0.60;;;;;;;;;;4930092;29;20311;-78
2021/01/24 03:41:53;;;;;;;1.33;0.70;;;;;;;;;;4934380;29;20279;-78
2021/01/24 03:44:19;;;;;;;0.73;0.50;;;;;;;;;;4947439;29;20277;-79
2021/01/24 03:46:45;;;;;;;0.63;0.50;;;;;;;;;;4956966;28;20351;-79
2021/01/24 03:49:11;;;;;;;1.87;0.57;;;;;;;;;;4952498;28;20362;-78
2021/01/24 03:51:38;;;;;;;1.43;0.80;;;;;;;;;;4950097;29;20292;-79
2021/01/24 03:54:04;;;;;;;1.50;0.73;;;;;;;;;;4949519;29;20820;-78
2021/01/24 03:56:30;;;;;;;0.87;0.57;;;;;;;;;;4950902;29;20770;-79
2021/01/24 03:58:56;;;;;;;0.80;0.53;;;;;;;;;;4943384;29;20299;-78
2021/01/24 04:01:22;;;;;;;1.13;0.73;;;;;;;;;;4962542;29;20271;-78
2021/01/24 04:03:48;;;;;;;1.07;0.70;;;;;;;;;;4957065;28;20275;-78
2021/01/24 04:06:14;;;;;;;1.33;0.90;;;;;;;;;;4962955;29;20271;-74
2021/01/24 04:08:40;;;;;;;0.50;0.33;;;;;;;;;;4961211;28;20279;-77
2021/01/24 04:11:06;;;;;;;1.97;1.00;;;;;;;;;;4963904;28;20283;-78
2021/01/24 04:13:32;;;;;;;0.87;0.53;;;;;;;;;;4948125;29;20283;-77
2021/01/24 04:15:58;;;;;;;2.03;1.10;;;;;;;;;;4963716;29;20271;-76
2021/01/24 04:18:24;;;;;;;2.10;1.30;;;;;;;;;;4946831;29;20283;-76
2021/01/24 04:20:50;;;;;;;1.87;0.90;;;;;;;;;;4960703;28;20307;-76
2021/01/24 04:23:16;;;;;;;3.07;1.47;;;;;;;;;;4958017;29;20273;-79
2021/01/24 04:25:43;;;;;;;2.13;0.93;;;;;;;;;;4935906;29;20946;-79
2021/01/24 04:28:09;;;;;;;2.87;1.37;;;;;;;;;;4937017;29;20283;-79
2021/01/24 04:30:35;;;;;;;3.53;1.13;;;;;;;;;;4954250;29;20271;-75
2021/01/24 04:33:01;;;;;;;2.80;1.50;;;;;;;;;;4954611;29;20275;-79
2021/01/24 04:35:27;;;;;;;2.67;1.43;;;;;;;;;;4939021;29;20275;-77
2021/01/24 04:37:53;;;;;;;8.93;2.47;;;;;;;;;;4945558;28;20528;-78
2021/01/24 04:40:19;;;;;;;5.50;2.20;;;;;;;;;;4952768;28;20283;-79
2021/01/24 04:42:45;;;;;;;5.03;2.30;;;;;;;;;;4940005;29;20275;-77
2021/01/24 04:45:12;;;;;;;5.87;2.63;;;;;;;;;;4952773;29;20362;-78
2021/01/24 04:47:39;;;;;;;5.13;2.40;;;;;;;;;;4950865;29;20706;-79
2021/01/24 04:50:06;;;;;;;4.67;2.30;;;;;;;;;;4948038;29;20283;-79
2021/01/24 04:52:32;;;;;;;7.50;2.57;;;;;;;;;;4938843;29;20271;-78
2021/01/24 04:54:58;;;;;;;4.00;1.97;;;;;;;;;;4951399;29;20268;-79
2021/01/24 04:57:25;;;;;;;4.60;2.20;;;;;;;;;;4952372;28;20366;-79
2021/01/24 04:59:51;;;;;;;6.37;2.73;;;;;;;;;;4949991;29;20271;-79
2021/01/24 05:02:17;;;;;;;7.93;2.10;;;;;;;;;;4967775;28;20331;-79
2021/01/24 05:04:43;;;;;;;5.20;2.80;;;;;;;;;;4936224;29;20613;-77
2021/01/24 05:07:09;;;;;;;3.70;1.67;;;;;;;;;;4937065;29;20380;-79
2021/01/24 05:09:36;;;;;;;4.10;1.73;;;;;;;;;;4949977;28;20687;-79
2021/01/24 05:12:02;;;;;;;4.07;1.90;;;;;;;;;;4937876;29;20695;-76
2021/01/24 05:14:28;;;;;;;3.47;1.73;;;;;;;;;;4935996;29;21001;-79
2021/01/24 05:16:55;;;;;;;3.73;1.27;;;;;;;;;;4963131;28;20275;-79
2021/01/24 05:19:22;;;;;;;4.77;1.37;;;;;;;;;;4949617;28;20387;-79
2021/01/24 05:21:48;;;;;;;3.50;1.70;;;;;;;;;;4935461;29;20334;-78
2021/01/24 05:24:16;;;;;;;3.80;2.13;;;;;;;;;;4935451;29;20307;-78
2021/01/24 05:26:43;;;;;;;4.80;2.37;;;;;;;;;;4949951;29;20291;-79
2021/01/24 05:29:26;;;;;;;4.50;2.23;;;;;;;;;;4948870;29;20785;-79
2021/01/24 05:31:53;;;;;;;6.13;2.87;;;;;;;;;;4930586;29;20295;-78
2021/01/24 05:34:23;;;;;;;4.73;2.50;;;;;;;;;;4950658;29;20339;-78
2021/01/24 05:36:49;;;;;;;4.57;1.43;;;;;;;;;;4931650;29;20303;-78
2021/01/24 05:39:15;;;;;;;6.43;2.37;;;;;;;;;;4945300;29;20335;-79
2021/01/24 05:41:53;;;;;;;6.17;2.67;;;;;;;;;;4950901;28;20415;-77
2021/01/24 05:44:20;;;;;;;4.43;1.83;;;;;;;;;;4950877;29;20264;-79
2021/01/24 05:46:47;;;;;;;4.60;2.17;;;;;;;;;;4947394;29;20283;-78
2021/01/24 05:49:14;;;;;;;3.63;1.50;;;;;;;;;;4948284;29;21105;-78
2021/01/24 05:51:40;;;;;;;5.43;1.87;;;;;;;;;;4949170;29;20865;-77
2021/01/24 05:54:06;;;;;;;3.97;1.77;;;;;;;;;;4934181;29;20279;-78
2021/01/24 05:56:33;;;;;;;3.90;1.37;;;;;;;;;;4948792;29;20710;-74
2021/01/24 05:59:00;;;;;;;5.83;2.50;;;;;;;;;;4933807;29;20295;-79
2021/01/24 06:01:27;;;;;;;5.67;2.00;;;;;;;;;;4950265;28;20882;-78
2021/01/24 06:03:57;;;;;;;6.73;2.07;;;;;;;;;;4949622;29;20315;-76
2021/01/24 06:06:23;;;;;;;3.90;1.43;;;;;;;;;;4948328;29;20267;-76
2021/01/24 06:08:50;;;;;;;3.77;1.73;;;;;;;;;;4948054;28;20298;-78
2021/01/24 06:11:16;;;;;;;4.03;2.23;;;;;;;;;;4949134;29;20264;-78
2021/01/24 06:13:46;;;;;;;6.97;2.13;;;;;;;;;;4935720;29;20291;-78
2021/01/24 06:16:13;;;;;;;3.67;1.63;;;;;;;;;;4948949;29;20276;-78
2021/01/24 06:18:56;;;;;;;3.03;1.53;;;;;;;;;;4933396;29;20354;-77
2021/01/24 06:21:42;;;;;;;3.80;2.30;;;;;;;;;;4945865;29;20279;-78
2021/01/24 06:24:27;;;;;;;4.40;1.53;;;;;;;;;;4934275;29;20355;-78
2021/01/24 06:26:57;;;;;;;3.00;1.43;;;;;;;;;;4947912;28;20276;-78
2021/01/24 06:29:25;;;;;;;6.60;2.30;;;;;;;;;;4931870;29;20785;-78
2021/01/24 06:31:53;;;;;;;5.30;2.30;;;;;;;;;;4949930;29;20276;-78
2021/01/24 06:34:38;;;;;;;5.17;2.10;;;;;;;;;;4949184;29;20739;-79
2021/01/24 06:37:11;;;;;;;4.77;1.87;;;;;;;;;;4948308;29;20346;-77
2021/01/24 06:39:48;;;;;;;5.10;1.92;;;;;;;;;;4947911;28;20290;-75
2021/01/24 06:42:34;;;;;;;10.47;2.90;;;;;;;;;;4938942;28;20421;-78
2021/01/24 06:45:00;;;;;;;6.03;2.77;;;;;;;;;;4950317;29;20256;-78
2021/01/24 06:47:36;;;;;;;6.87;2.53;;;;;;;;;;4948843;29;20279;-77
2021/01/24 06:50:03;;;;;;;5.63;3.07;;;;;;;;;;4950050;28;20291;-79
2021/01/24 06:52:29;;;;;;;7.53;3.23;;;;;;;;;;4948671;29;20286;-78
2021/01/24 06:54:55;;;;;;;5.40;2.87;;;;;;;;;;4949184;28;20283;-75
2021/01/24 06:57:30;;;;;;;4.97;2.33;;;;;;;;;;4944792;28;20824;-78
2021/01/24 07:00:15;;;;;;;4.40;1.77;;;;;;;;;;4948754;29;20272;-78
2021/01/24 07:02:41;;;;;;;6.43;2.40;;;;;;;;;;4948858;29;20274;-78
2021/01/24 07:05:10;;;;;;;4.10;2.10;;;;;;;;;;4965376;28;20334;-76
2021/01/24 07:07:37;;;;;;;6.23;2.57;;;;;;;;;;4946948;28;20339;-79
2021/01/24 07:10:03;;;;;;;4.93;2.13;;;;;;;;;;4947704;28;20284;-78
2021/01/24 07:12:43;;;;;;;7.00;3.90;;;;;;;;;;4948813;29;20271;-77
2021/01/24 07:15:10;;;;;;;6.60;3.03;;;;;;;;;;4948349;29;20272;-76
2021/01/24 07:17:37;;;;;;;4.60;2.40;;;;;;;;;;4948036;29;20335;-78
2021/01/24 07:20:04;;;;;;;10.37;4.43;;;;;;;;;;4944959;28;20311;-76
2021/01/24 07:22:33;;;;;;;5.60;2.97;;;;;;;;;;4928638;29;20286;-77
2021/01/24 07:24:59;;;;;;;5.97;2.40;;;;;;;;;;4944949;29;20294;-76
2021/01/24 07:27:29;;;;;;;5.77;2.77;;;;;;;;;;4929815;29;20298;-78
2021/01/24 07:29:56;;;;;;;6.13;2.70;;;;;;;;;;4944857;28;20287;-76
2021/01/24 07:32:24;;;;;;;5.50;3.27;;;;;;;;;;4929106;29;20275;-76
2021/01/24 07:34:51;;;;;;;7.03;3.60;;;;;;;;;;4928611;29;20278;-77
2021/01/24 07:37:17;;;;;;;6.80;3.83;;;;;;;;;;4944102;29;20750;-76
2021/01/24 07:39:44;;;;;;;10.47;6.47;;;;;;;;;;4947135;28;20357;-76
2021/01/24 07:42:11;;;;;;;11.47;5.10;;;;;;;;;;4944762;29;20271;-77
2021/01/24 07:44:38;;;;;;;6.17;3.23;;;;;;;;;;4930433;29;20392;-76
2021/01/24 07:47:04;;;;;;;5.47;3.37;;;;;;;;;;4928099;29;20288;-76
2021/01/24 07:49:30;;;;;;;8.30;4.80;;;;;;;;;;4942911;28;20347;-76
2021/01/24 07:51:56;;;;;;;16.07;6.53;;;;;;;;;;4940905;29;20284;-77
2021/01/24 07:54:22;;;;;;;5.67;2.97;;;;;;;;;;4931297;29;20674;-76
2021/01/24 07:56:49;;;;;;;5.87;2.77;;;;;;;;;;4929276;29;20320;-77
2021/01/24 07:59:16;;;;;;;5.37;2.73;;;;;;;;;;4929787;29;20994;-77
2021/01/24 08:01:42;;;;;;;5.20;2.40;;;;;;;;;;4944157;29;20681;-77
2021/01/24 08:04:08;;;;;;;5.67;2.73;;;;;;;;;;4945104;29;20271;-76
2021/01/24 08:06:39;;;;;;;3.50;2.23;;;;;;;;;;4945064;28;20275;-77
2021/01/24 08:09:06;;;;;;;7.17;4.13;;;;;;;;;;4928191;29;20294;-77
2021/01/24 08:11:32;;;;;;;6.43;3.10;;;;;;;;;;4945073;29;20327;-76
2021/01/24 08:13:58;;;;;;;4.13;2.40;;;;;;;;;;4945008;29;20284;-77
2021/01/24 08:16:33;;;;;;;6.07;2.67;;;;;;;;;;4947510;28;20279;-77
2021/01/24 08:18:59;;;;;;;5.50;2.63;;;;;;;;;;4929737;29;20339;-76
2021/01/24 08:21:26;;;;;;;4.43;2.53;;;;;;;;;;4943233;28;20328;-76
2021/01/24 08:23:53;;;;;;;8.47;2.70;;;;;;;;;;4930655;29;20355;-75
2021/01/24 08:26:21;;;;;;;5.17;2.60;;;;;;;;;;4947153;28;20278;-77
2021/01/24 08:28:48;;;;;;;5.07;2.47;;;;;;;;;;4932309;29;20295;-76
2021/01/24 08:31:18;;;;;;;5.40;2.70;;;;;;;;;;4936378;29;21147;-76
2021/01/24 08:33:45;;;;;;;4.63;2.33;;;;;;;;;;4944918;28;20279;-75
2021/01/24 08:36:21;;;;;;;8.77;2.73;;;;;;;;;;4926556;29;20278;-76
2021/01/24 08:38:48;;;;;;;3.63;1.70;;;;;;;;;;4944109;28;20366;-76
2021/01/24 08:41:14;;;;;;;6.60;2.73;;;;;;;;;;4929498;29;20722;-76
2021/01/24 08:43:42;;;;;;;5.83;2.43;;;;;;;;;;4929680;29;20287;-77
2021/01/24 08:46:27;;;;;;;4.83;2.30;;;;;;;;;;4928565;29;20287;-75
2021/01/24 08:48:59;;;;;;;8.00;2.83;;;;;;;;;;4942538;28;20288;-76
2021/01/24 08:51:48;;;;;;;6.80;2.33;;;;;;;;;;4947638;28;20363;-76
2021/01/24 08:54:15;;;;;;;6.10;3.00;;;;;;;;;;4954686;28;20267;-75
2021/01/24 08:56:41;;;;;;;5.00;2.83;;;;;;;;;;4946863;29;20285;-75
2021/01/24 08:59:18;;;;;;;4.10;2.17;;;;;;;;;;4940356;28;20354;-77
2021/01/24 09:01:45;;;;;;;4.93;2.40;;;;;;;;;;4934851;29;20278;-76
2021/01/24 09:04:18;;;;;;;4.50;2.40;;;;;;;;;;4933348;29;20358;-76
2021/01/24 09:06:58;;;;;;;5.60;2.85;;;;;;;;;;4947146;29;20264;-76
2021/01/24 09:09:27;;;;;;;4.50;2.67;;;;;;;;;;4948896;28;20031;-76
2021/01/24 09:11:54;;;;;;;7.27;3.20;;;;;;;;;;4933737;29;20330;-77
2021/01/24 09:14:20;;;;;;;6.70;2.93;;;;;;;;;;4947912;29;20272;-77
2021/01/24 09:16:46;;;;;;;5.77;2.60;;;;;;;;;;4931388;29;20331;-76
2021/01/24 09:19:12;;;;;;;5.67;2.70;;;;;;;;;;4931240;29;20292;-76
2021/01/24 09:21:38;;;;;;;6.30;3.00;;;;;;;;;;4945708;29;20267;-76
2021/01/24 09:24:05;;;;;;;6.43;2.43;;;;;;;;;;4945501;29;20315;-75
2021/01/24 09:26:31;;;;;;;7.00;2.80;;;;;;;;;;4946076;28;20384;-76
2021/01/24 09:28:57;;;;;;;6.50;2.90;;;;;;;;;;4944403;28;20283;-76
2021/01/24 09:31:25;;;;;;;6.07;2.73;;;;;;;;;;4933253;29;20334;-76
2021/01/24 09:33:51;;;;;;;5.53;2.63;;;;;;;;;;4946457;29;20378;-76
2021/01/24 09:36:17;;;;;;;4.10;2.23;;;;;;;;;;4931162;29;20271;-76
2021/01/24 09:38:43;;;;;;;8.43;3.47;;;;;;;;;;4939293;29;20291;-76
2021/01/24 09:41:09;;;;;;;5.27;2.43;;;;;;;;;;4930349;29;20788;-75
2021/01/24 09:43:35;;;;;;;5.87;3.07;;;;;;;;;;4946272;29;20801;-76
2021/01/24 09:46:01;;;;;;;6.00;2.70;;;;;;;;;;4946458;29;20354;-76
2021/01/24 09:48:27;;;;;;;5.17;2.93;;;;;;;;;;4928875;29;20290;-76
2021/01/24 09:50:53;;;;;;;10.17;3.57;;;;;;;;;;4931360;29;20275;-76
2021/01/24 09:53:19;;;;;;;9.57;3.83;;;;;;;;;;4932361;29;20276;-76
2021/01/24 09:55:45;;;;;;;5.77;3.17;;;;;;;;;;4929335;29;20839;-75
2021/01/24 09:58:11;;;;;;;10.70;4.00;;;;;;;;;;4944966;28;20303;-75
2021/01/24 10:00:38;;;;;;;7.10;2.63;;;;;;;;;;4948876;28;20275;-75
2021/01/24 10:03:04;;;;;;;7.13;2.30;;;;;;;;;;4945995;28;20271;-75
2021/01/24 10:05:30;;;;;;;6.63;3.00;;;;;;;;;;4930686;29;20728;-76
2021/01/24 10:07:56;;;;;;;6.40;3.00;;;;;;;;;;4925883;29;20287;-76
2021/01/24 10:10:22;;;;;;;5.67;2.80;;;;;;;;;;4947527;29;20275;-78
2021/01/24 10:12:48;;;;;;;4.43;2.73;;;;;;;;;;4950087;29;20371;-78
2021/01/24 10:15:14;;;;;;;4.40;2.57;;;;;;;;;;4949674;29;20267;-78
2021/01/24 10:17:40;;;;;;;4.07;2.40;;;;;;;;;;4938839;29;20288;-78
2021/01/24 10:20:07;;;;;;;6.23;3.33;;;;;;;;;;4938909;29;20633;-76
2021/01/24 10:22:33;;;;;;;9.30;4.23;;;;;;;;;;4935812;29;20279;-78
2021/01/24 10:24:59;;;;;;;8.83;3.57;;;;;;;;;;4958563;28;20354;-75
2021/01/24 10:27:25;;;;;;;7.10;3.60;;;;;;;;;;4950891;29;20279;-79
2021/01/24 10:29:52;;;;;;;10.47;5.37;;;;;;;;;;4935428;29;20295;-78
2021/01/24 10:32:18;;;;;;;6.70;3.83;;;;;;;;;;4949955;28;20287;-77
2021/01/24 10:34:44;;;;;;;9.17;3.70;;;;;;;;;;4952641;28;20270;-77
2021/01/24 10:37:10;;;;;;;7.27;3.80;;;;;;;;;;4945215;29;20354;-78
2021/01/24 10:39:37;;;;;;;6.30;3.73;;;;;;;;;;4952303;28;20294;-76
2021/01/24 10:42:03;;;;;;;6.67;3.70;;;;;;;;;;4957644;28;20275;-78
2021/01/24 10:44:29;;;;;;;8.37;3.67;;;;;;;;;;4953492;29;20301;-77
2021/01/24 10:46:55;;;;;;;7.87;3.83;;;;;;;;;;4945552;28;20339;-76
2021/01/24 10:49:21;;;;;;;17.33;3.93;;;;;;;;;;4966133;28;20284;-78
2021/01/24 10:51:47;;;;;;;5.73;3.67;;;;;;;;;;4949845;29;20279;-75
2021/01/24 10:54:13;;;;;;;6.23;3.70;;;;;;;;;;4933413;29;20279;-77
2021/01/24 10:56:39;;;;;;;7.27;3.57;;;;;;;;;;4932482;29;20283;-77
2021/01/24 10:59:08;;;;;;;5.50;3.37;;;;;;;;;;4947606;28;20690;-78
2021/01/24 11:01:34;;;;;;;12.03;4.33;;;;;;;;;;4939385;29;20285;-76
2021/01/24 11:04:00;;;;;;;15.37;4.43;;;;;;;;;;4950087;29;20307;-76
2021/01/24 11:06:26;;;;;;;7.03;3.23;;;;;;;;;;4952389;28;20965;-77
2021/01/24 11:08:52;;;;;;;7.10;3.73;;;;;;;;;;4932882;29;20275;-78
2021/01/24 11:11:20;;;;;;;6.60;3.20;;;;;;;;;;4933703;29;20275;-78
2021/01/24 11:13:46;;;;;;;8.07;3.40;;;;;;;;;;4933654;29;20358;-78
2021/01/24 11:16:12;;;;;;;7.97;4.00;;;;;;;;;;4952721;28;20279;-78
2021/01/24 11:18:38;;;;;;;5.80;2.77;;;;;;;;;;4934544;28;20292;-77
2021/01/24 11:21:05;;;;;;;6.50;3.60;;;;;;;;;;4948262;28;20370;-78
2021/01/24 11:23:32;;;;;;;7.63;3.13;;;;;;;;;;4947661;29;20306;-78
2021/01/24 11:25:58;;;;;;;4.87;2.90;;;;;;;;;;4951568;29;20808;-77
2021/01/24 11:28:24;;;;;;;8.63;4.07;;;;;;;;;;4931651;29;20283;-78
2021/01/24 11:30:50;;;;;;;4.70;2.53;;;;;;;;;;4947522;29;20686;-78
2021/01/24 11:33:17;;;;;;;6.30;3.03;;;;;;;;;;4933780;29;20311;-77
2021/01/24 11:35:43;;;;;;;7.13;3.73;;;;;;;;;;4935243;29;20403;-75
2021/01/24 11:38:09;;;;;;;3.80;2.27;;;;;;;;;;4931513;29;20302;-78
2021/01/24 11:40:35;;;;;;;7.30;3.43;;;;;;;;;;4947334;29;20275;-77
2021/01/24 11:43:01;;;;;;;6.67;3.93;;;;;;;;;;4932571;29;20268;-78
2021/01/24 11:45:27;;;;;;;7.87;4.07;;;;;;;;;;4948602;29;20299;-78
2021/01/24 11:47:55;;;;;;;7.13;3.27;;;;;;;;;;4947396;28;20283;-78
2021/01/24 11:50:22;;;;;;;5.60;3.03;;;;;;;;;;4932897;29;20290;-78
2021/01/24 11:52:49;;;;;;;6.73;3.83;;;;;;;;;;4948908;28;20275;-76
2021/01/24 11:55:16;;;;;;;4.27;2.27;;;;;;;;;;4948670;29;20347;-77
2021/01/24 11:57:42;;;;;;;5.57;3.40;;;;;;;;;;4931801;29;20323;-78
2021/01/24 12:00:08;;;;;;;7.93;4.20;;;;;;;;;;4949240;28;20449;-77
2021/01/24 12:02:35;;;;;;;5.53;3.17;;;;;;;;;;4948765;28;20781;-76
2021/01/24 12:05:01;;;;;;;10.90;3.17;;;;;;;;;;4936263;29;20902;-78
2021/01/24 12:07:27;;;;;;;7.20;3.70;;;;;;;;;;4948186;28;20283;-78
2021/01/24 12:09:53;;;;;;;8.23;4.70;;;;;;;;;;4947836;28;20776;-78
2021/01/24 12:12:19;;;;;;;6.17;2.77;;;;;;;;;;4946917;28;20454;-77
2021/01/24 12:14:46;;;;;;;8.20;4.03;;;;;;;;;;4946253;29;20272;-78
2021/01/24 12:17:13;;;;;;;9.77;3.63;;;;;;;;;;4944464;29;20279;-78
2021/01/24 12:19:39;;;;;;;7.60;3.37;;;;;;;;;;4944353;28;20290;-77
2021/01/24 12:22:05;;;;;;;5.93;3.13;;;;;;;;;;4932727;29;20287;-78
2021/01/24 12:24:32;;;;;;;7.13;3.30;;;;;;;;;;4945847;28;20825;-78
2021/01/24 12:26:58;;;;;;;8.37;3.73;;;;;;;;;;4946468;28;20271;-76
2021/01/24 12:29:24;;;;;;;14.57;5.63;;;;;;;;;;4948096;28;20283;-77
2021/01/24 12:31:50;;;;;;;6.50;3.73;;;;;;;;;;4949617;29;20363;-75
2021/01/24 12:34:16;;;;;;;8.87;3.83;;;;;;;;;;4932486;29;20330;-77
2021/01/24 12:36:42;;;;;;;7.63;3.13;;;;;;;;;;4929385;29;20291;-75
2021/01/24 12:39:08;;;;;;;9.43;2.77;;;;;;;;;;4923035;29;20295;-75
2021/01/24 12:41:34;;;;;;;7.17;3.90;;;;;;;;;;4949181;29;20570;-78
2021/01/24 12:44:00;;;;;;;9.07;4.20;;;;;;;;;;4949431;29;20331;-78
2021/01/24 12:46:26;;;;;;;9.47;3.90;;;;;;;;;;4948184;29;20287;-78
2021/01/24 12:48:53;;;;;;;8.10;4.20;;;;;;;;;;4948266;28;20303;-77
2021/01/24 12:51:19;;;;;;;8.77;2.63;;;;;;;;;;4945461;29;20299;-78
2021/01/24 12:53:45;;;;;;;10.20;5.03;;;;;;;;;;4962392;28;20378;-78
2021/01/24 12:56:11;;;;;;;6.67;3.07;;;;;;;;;;4935083;29;20849;-76
2021/01/24 12:58:37;;;;;;;7.43;4.07;;;;;;;;;;4947702;29;20345;-78
2021/01/24 13:01:03;;;;;;;6.97;3.27;;;;;;;;;;4934421;29;20291;-77
2021/01/24 13:03:29;;;;;;;6.60;3.33;;;;;;;;;;4935591;29;20419;-77
2021/01/24 13:05:55;;;;;;;10.33;4.80;;;;;;;;;;4936243;29;20270;-78
2021/01/24 13:08:21;;;;;;;5.70;2.80;;;;;;;;;;4949170;28;20697;-75
2021/01/24 13:10:47;;;;;;;5.37;2.30;;;;;;;;;;4935992;29;20358;-78
2021/01/24 13:13:13;;;;;;;9.10;4.63;;;;;;;;;;4938088;29;20288;-77
2021/01/24 13:15:41;;;;;;;8.80;3.77;;;;;;;;;;4949984;29;20283;-77
2021/01/24 13:18:07;;;;;;;5.00;2.67;;;;;;;;;;4948870;28;20294;-78
2021/01/24 13:20:33;;;;;;;7.47;3.40;;;;;;;;;;4948026;28;20322;-78
2021/01/24 13:23:01;;;;;;;4.13;1.90;;;;;;;;;;4948078;28;20268;-78
2021/01/24 13:25:27;;;;;;;4.77;2.80;;;;;;;;;;4949134;29;20283;-75
2021/01/24 13:27:53;;;;;;;7.07;3.43;;;;;;;;;;4931921;29;20291;-80
2021/01/24 13:30:19;;;;;;;4.40;2.23;;;;;;;;;;4932665;29;21045;-79
2021/01/24 13:32:45;;;;;;;3.37;1.67;;;;;;;;;;4933385;29;20259;-78
2021/01/24 13:35:12;;;;;;;3.57;1.93;;;;;;;;;;4946697;29;20271;-77
2021/01/24 13:37:38;;;;;;;7.43;2.90;;;;;;;;;;4930969;29;20291;-75
2021/01/24 13:40:04;;;;;;;6.93;2.37;;;;;;;;;;4931485;29;20287;-74
2021/01/24 13:42:30;;;;;;;4.67;2.30;;;;;;;;;;4947705;29;20275;-76
2021/01/24 13:44:56;;;;;;;6.93;2.93;;;;;;;;;;4948714;29;20286;-76
2021/01/24 13:47:22;;;;;;;5.07;2.50;;;;;;;;;;4946542;29;20282;-74
2021/01/24 13:49:48;;;;;;;5.50;2.00;;;;;;;;;;4946136;28;20379;-76
2021/01/24 13:52:15;;;;;;;3.83;1.87;;;;;;;;;;4932941;29;20638;-77
2021/01/24 13:54:41;;;;;;;4.60;2.00;;;;;;;;;;4946131;29;20271;-74
2021/01/24 13:57:07;;;;;;;6.63;1.70;;;;;;;;;;4947146;29;20397;-78
2021/01/24 13:59:33;;;;;;;5.80;2.10;;;;;;;;;;4932361;29;20287;-78
2021/01/24 14:01:59;;;;;;;5.17;2.17;;;;;;;;;;4934885;29;20267;-79
2021/01/24 14:04:25;;;;;;;4.67;1.50;;;;;;;;;;4949867;29;20303;-79
2021/01/24 14:06:51;;;;;;;4.17;2.17;;;;;;;;;;4947732;29;20279;-77
2021/01/24 14:09:17;;;;;;;3.17;1.67;;;;;;;;;;4962612;28;20287;-78
2021/01/24 14:11:44;;;;;;;6.43;3.07;;;;;;;;;;4933330;29;20279;-78
2021/01/24 14:14:10;;;;;;;4.40;1.70;;;;;;;;;;4933569;29;20285;-77
2021/01/24 14:16:36;;;;;;;9.70;3.13;;;;;;;;;;4948101;29;20279;-77
2021/01/24 14:19:02;;;;;;;14.30;5.33;;;;;;;;;;4945364;28;20342;-77
2021/01/24 14:21:28;;;;;;;11.87;4.43;;;;;;;;;;4940930;28;20379;-78
2021/01/24 14:23:54;;;;;;;4.40;2.03;;;;;;;;;;4962902;28;20288;-79
2021/01/24 14:26:20;;;;;;;8.37;2.60;;;;;;;;;;4944788;29;20307;-76
2021/01/24 14:28:46;;;;;;;3.43;1.77;;;;;;;;;;4942699;28;20280;-78
2021/01/24 14:31:12;;;;;;;4.93;2.37;;;;;;;;;;4946146;29;20287;-79
2021/01/24 14:33:38;;;;;;;6.13;2.67;;;;;;;;;;4947870;29;20623;-79
2021/01/24 14:36:05;;;;;;;4.97;2.37;;;;;;;;;;4948476;29;20294;-78
2021/01/24 14:38:31;;;;;;;6.90;1.97;;;;;;;;;;4928145;29;20302;-78